Thomaston, ME

2:08 PM EST on December 25, 2014 (GMT -0500)
Thomaston | Change Station
CLOSE
Current Station
Personal Weather Station
Location: Thomaston, ME
Elevation: 177 ft
Nearby Weather Stations

Elev 177 ft 44.08 °N, 69.19 °W | Updated 7 minutes ago

Partly Cloudy
Partly Cloudy
48.9 °F
Feels Like 49 °F
N
1.0
Wind Variable Wind from ENE
Gusts 1.0 mph

Today
High -- | Low -- °F
--% Chance of Precip.
Yesterday
High -- | Low -- °F
Precip. -- in
7:10 AM 4:03 PM
Waxing Crescent, 18% visible
Pressure 29.45 in
Visibility 10.0 miles
Clouds Scattered Clouds 2100 ft
Windchill 49 °F
Dew Point 47 °F
Humidity 93%
Rainfall 0.54 in
Snow Depth Not available.
UV 1 out of 12
Pollen .10 out of 12
Air Quality Not available.
Flu Activity Not available.
METAR KRKD 251855Z AUTO 26013G21KT 10SM SCT021 10/06 A2945 RMK AO1

More Conditions Fewer Conditions

Pressure 29.45 in
Visibility 10.0 miles
Clouds Scattered Clouds 2100 ft
Windchill 49 °F
Dew Point 47 °F
Humidity 93%
Rainfall 0.54 in
Snow Depth Not available.
UV 1 out of 12
Pollen .10 out of 12
Air Quality Not available.
Flu Activity Not available.
METAR KRKD 251855Z AUTO 26013G21KT 10SM SCT021 10/06 A2945 RMK AO1

More Conditions Fewer Conditions

10-Day Weather Forecast

Almanac

Astronomy

Dec. 25, 2014 Rise Set
Actual Time
Civil Twilight
Nautical Twilight
Astronomical Twilight
Moon
Length of Visible Light
Length of Day
Tomorrow will be .
, % of the Moon is Illuminated

Today's Extremes

State Highs State Lows

Community

WunderPhotos

Upload Photos

1,780,364 photos uploaded!

WunderBlogs® & News

Nearby

Air Quality

  Air Quality AQ Index Pollutant
Not available.

Snow Depth

Station Depth Elevation

Earthquake Activity

City Distance Mag. Time & Date
Minimum magnitude displayed is 2.5.

Coastal Water Temperatures

Place Temperature

Nearby Weather Stations